createdAt,value
2017-11-26T00:01:31.287Z,46.13
2017-11-26T00:03:57.558Z,41.63
2017-11-26T00:06:23.807Z,48.13
2017-11-26T00:08:50.133Z,42.80
2017-11-26T00:11:16.335Z,42.37
2017-11-26T00:13:42.583Z,59.33
2017-11-26T00:16:08.835Z,57.57
2017-11-26T00:18:35.942Z,52.70
2017-11-26T00:21:02.237Z,45.20
2017-11-26T00:23:29.216Z,59.03
2017-11-26T00:25:55.446Z,59.53
2017-11-26T00:28:21.747Z,58.33
2017-11-26T00:30:47.994Z,53.60
2017-11-26T00:33:14.237Z,62.43
2017-11-26T00:35:40.587Z,60.17
2017-11-26T00:38:06.876Z,51.97
2017-11-26T00:40:33.195Z,48.40
2017-11-26T00:42:59.469Z,52.70
2017-11-26T00:45:25.685Z,46.30
2017-11-26T00:47:51.920Z,53.57
2017-11-26T00:50:18.138Z,56.50
2017-11-26T00:52:44.533Z,54.60
2017-11-26T00:55:11.844Z,54.93
2017-11-26T00:57:38.155Z,54.83
2017-11-26T01:00:04.534Z,49.37
2017-11-26T01:02:30.885Z,46.90
2017-11-26T01:04:57.280Z,49.03
2017-11-26T01:07:24.241Z,57.07
2017-11-26T01:09:51.362Z,47.80
2017-11-26T01:12:17.603Z,58.13
2017-11-26T01:14:44.575Z,51.63
2017-11-26T01:17:10.766Z,54.70
2017-11-26T01:19:37.760Z,50.40
2017-11-26T01:22:03.958Z,49.30
2017-11-26T01:24:31.025Z,57.27
2017-11-26T01:26:57.231Z,55.17
2017-11-26T01:29:24.221Z,48.43
2017-11-26T01:31:50.431Z,52.97
2017-11-26T01:34:16.678Z,53.23
2017-11-26T01:36:42.903Z,64.37
2017-11-26T01:39:09.162Z,51.80
2017-11-26T01:41:35.371Z,57.10
2017-11-26T01:44:01.698Z,51.63
2017-11-26T01:46:27.947Z,50.20
2017-11-26T01:48:54.200Z,53.33
2017-11-26T01:51:21.229Z,61.63
2017-11-26T01:53:47.488Z,50.80
2017-11-26T01:56:13.735Z,57.30
2017-11-26T01:58:40.027Z,65.37
2017-11-26T02:01:07.028Z,58.43
2017-11-26T02:03:33.290Z,57.70
2017-11-26T02:05:59.556Z,57.50
2017-11-26T02:08:25.802Z,60.53
2017-11-26T02:10:52.967Z,54.20
2017-11-26T02:13:19.221Z,53.77
2017-11-26T02:15:45.468Z,53.43
2017-11-26T02:18:12.442Z,58.00
2017-11-26T02:20:38.739Z,54.30
2017-11-26T02:23:04.966Z,50.10
2017-11-26T02:25:31.987Z,58.23
2017-11-26T02:27:58.267Z,56.50
2017-11-26T02:30:24.663Z,56.13
2017-11-26T02:33:04.149Z,55.67
2017-11-26T02:35:38.524Z,56.70
2017-11-26T02:38:05.487Z,67.13
2017-11-26T02:40:31.793Z,62.17
2017-11-26T02:42:58.029Z,62.73
2017-11-26T02:45:25.028Z,61.40
2017-11-26T02:47:51.343Z,61.80
2017-11-26T02:50:17.580Z,67.17
2017-11-26T02:52:43.840Z,56.53
2017-11-26T02:55:10.108Z,57.03
2017-11-26T02:57:37.137Z,58.90
2017-11-26T03:00:03.422Z,63.13
2017-11-26T03:02:29.606Z,64.47
2017-11-26T03:04:56.570Z,60.47
2017-11-26T03:07:22.796Z,63.60
2017-11-26T03:09:49.065Z,60.93
2017-11-26T03:12:15.287Z,78.00
2017-11-26T03:14:41.552Z,67.10
2017-11-26T03:17:07.806Z,52.00
2017-11-26T03:19:34.076Z,60.40
2017-11-26T03:22:00.611Z,60.53
2017-11-26T03:24:26.877Z,58.60
2017-11-26T03:26:54.068Z,68.60
2017-11-26T03:29:20.470Z,56.60
2017-11-26T03:31:46.937Z,62.13
2017-11-26T03:34:13.158Z,57.70
2017-11-26T03:36:39.487Z,55.67
2017-11-26T03:39:05.766Z,67.33
2017-11-26T03:41:32.053Z,56.20
2017-11-26T03:43:58.306Z,56.20
2017-11-26T03:46:24.580Z,52.77
2017-11-26T03:48:50.815Z,59.63
2017-11-26T03:51:17.063Z,53.10
2017-11-26T03:53:43.282Z,63.20
2017-11-26T03:56:09.526Z,68.87
2017-11-26T03:58:35.780Z,59.50
2017-11-26T04:01:02.026Z,57.57
2017-11-26T04:03:28.334Z,55.30
2017-11-26T04:05:54.637Z,63.47
2017-11-26T04:08:20.865Z,60.53
2017-11-26T04:10:47.124Z,60.40
2017-11-26T04:13:13.369Z,62.80
2017-11-26T04:15:40.370Z,57.43
2017-11-26T04:18:06.642Z,56.07
2017-11-26T04:20:32.883Z,63.90
2017-11-26T04:22:59.882Z,60.73
2017-11-26T04:25:26.159Z,57.27
2017-11-26T04:27:53.176Z,56.87
2017-11-26T04:30:20.976Z,50.87
2017-11-26T04:32:47.252Z,53.90
2017-11-26T04:35:13.471Z,47.63
2017-11-26T04:37:39.758Z,49.00
2017-11-26T04:40:06.750Z,48.27
2017-11-26T04:42:33.036Z,42.20
2017-11-26T04:44:59.255Z,46.57
2017-11-26T04:47:26.254Z,48.80
2017-11-26T04:49:52.454Z,48.13
2017-11-26T04:52:18.710Z,39.63
2017-11-26T04:54:44.957Z,57.83
2017-11-26T04:57:11.228Z,46.10
2017-11-26T04:59:37.595Z,42.60
2017-11-26T05:02:03.871Z,45.23
2017-11-26T05:04:30.902Z,39.93
2017-11-26T05:06:57.191Z,49.03
2017-11-26T05:09:23.410Z,37.43
2017-11-26T05:11:49.793Z,44.00
2017-11-26T05:14:16.012Z,41.63
2017-11-26T05:16:42.277Z,36.10
2017-11-26T05:19:08.570Z,43.53
2017-11-26T05:21:34.937Z,43.27
2017-11-26T05:24:01.244Z,45.90
2017-11-26T05:26:28.368Z,48.30
2017-11-26T05:28:54.607Z,39.53
2017-11-26T05:31:20.905Z,37.37
2017-11-26T05:33:47.135Z,35.80
2017-11-26T05:36:13.407Z,38.27
2017-11-26T05:38:40.452Z,34.63
2017-11-26T05:41:06.699Z,34.57
2017-11-26T05:43:33.751Z,37.70
2017-11-26T05:45:59.977Z,51.60
2017-11-26T05:48:26.207Z,34.70
2017-11-26T05:50:52.463Z,35.47
2017-11-26T05:53:18.712Z,39.07
2017-11-26T05:55:44.979Z,33.23
2017-11-26T05:58:12.244Z,35.43
2017-11-26T06:00:38.565Z,28.90
2017-11-26T06:03:05.572Z,31.97
2017-11-26T06:05:31.802Z,36.47
2017-11-26T06:07:58.815Z,36.77
2017-11-26T06:10:25.084Z,35.37
2017-11-26T06:12:51.432Z,43.20
2017-11-26T06:15:17.688Z,29.87
2017-11-26T06:17:43.941Z,34.23
2017-11-26T06:20:10.163Z,35.70
2017-11-26T06:22:36.448Z,36.57
2017-11-26T06:25:11.975Z,38.63
2017-11-26T06:27:39.869Z,34.93
2017-11-26T06:30:06.172Z,33.83
2017-11-26T06:32:32.430Z,34.63
2017-11-26T06:34:59.653Z,36.73
2017-11-26T06:37:28.237Z,38.00
2017-11-26T06:39:54.623Z,34.90
2017-11-26T06:42:21.644Z,35.43
2017-11-26T06:44:48.079Z,37.17
2017-11-26T06:47:14.527Z,38.13
2017-11-26T06:49:41.851Z,37.63
2017-11-26T06:52:09.721Z,28.93
2017-11-26T06:54:37.468Z,31.63
2017-11-26T06:57:05.150Z,28.30
2017-11-26T06:59:32.496Z,29.90
2017-11-26T07:02:00.548Z,37.40
2017-11-26T07:04:29.054Z,34.60
2017-11-26T07:06:57.127Z,33.63
2017-11-26T07:09:27.127Z,32.27
2017-11-26T07:11:56.707Z,31.67
2017-11-26T07:14:23.307Z,32.73
2017-11-26T07:16:50.857Z,32.23
2017-11-26T07:19:21.681Z,27.07
2017-11-26T07:21:49.483Z,36.47
2017-11-26T07:24:18.792Z,35.53
2017-11-26T07:26:45.191Z,34.00
2017-11-26T07:29:12.549Z,31.80
2017-11-26T07:31:38.844Z,30.40
2017-11-26T07:34:05.237Z,33.70
2017-11-26T07:36:31.471Z,34.10
2017-11-26T07:38:57.744Z,35.40
2017-11-26T07:41:24.004Z,36.57
2017-11-26T07:43:50.269Z,29.83
2017-11-26T07:46:16.622Z,32.50
2017-11-26T07:48:43.592Z,29.90
2017-11-26T07:51:09.881Z,30.80
2017-11-26T07:53:36.369Z,30.17
2017-11-26T07:56:02.760Z,31.47
2017-11-26T07:58:29.048Z,30.10
2017-11-26T08:00:55.330Z,33.63
2017-11-26T08:03:22.505Z,29.93
2017-11-26T08:05:48.720Z,27.17
2017-11-26T08:08:15.027Z,28.60
2017-11-26T08:10:42.069Z,27.93
2017-11-26T08:13:09.107Z,28.83
2017-11-26T08:15:35.414Z,26.07
2017-11-26T08:18:01.625Z,30.47
2017-11-26T08:20:27.867Z,28.30
2017-11-26T08:22:54.102Z,33.00
2017-11-26T08:25:20.592Z,33.20
2017-11-26T08:27:47.559Z,31.60
2017-11-26T08:30:13.827Z,31.67
2017-11-26T08:32:40.180Z,29.10
2017-11-26T08:35:06.431Z,25.70
2017-11-26T08:37:32.728Z,25.40
2017-11-26T08:39:59.101Z,25.70
2017-11-26T08:42:25.439Z,24.07
2017-11-26T08:44:51.724Z,24.87
2017-11-26T08:47:18.012Z,29.00
2017-11-26T08:49:44.398Z,25.60
2017-11-26T08:52:10.639Z,28.60
2017-11-26T08:54:36.898Z,25.50
2017-11-26T08:57:03.166Z,22.33
2017-11-26T08:59:30.268Z,22.30
2017-11-26T09:01:57.546Z,20.90
2017-11-26T09:04:24.170Z,24.70
2017-11-26T09:06:54.286Z,27.00
2017-11-26T09:09:21.451Z,22.33
2017-11-26T09:11:48.029Z,25.23
2017-11-26T09:14:14.281Z,21.10
2017-11-26T09:16:40.510Z,19.57
2017-11-26T09:19:06.772Z,19.87
2017-11-26T09:21:33.004Z,20.40
2017-11-26T09:23:59.252Z,19.20
2017-11-26T09:26:26.687Z,25.93
2017-11-26T09:28:53.077Z,18.13
2017-11-26T09:31:19.683Z,35.50
2017-11-26T09:33:45.988Z,17.60
2017-11-26T09:36:12.362Z,21.00
2017-11-26T09:38:38.767Z,23.73
2017-11-26T09:41:05.840Z,20.87
2017-11-26T09:43:32.464Z,21.23
2017-11-26T09:45:59.605Z,22.50
2017-11-26T09:48:25.851Z,20.27
2017-11-26T09:50:52.076Z,22.77
2017-11-26T09:53:18.374Z,17.73
2017-11-26T09:55:45.367Z,17.03
2017-11-26T09:58:11.644Z,16.70
2017-11-26T10:00:38.653Z,14.17
2017-11-26T10:03:04.866Z,20.70
2017-11-26T10:05:31.153Z,15.10
2017-11-26T10:07:58.112Z,18.77
2017-11-26T10:10:25.065Z,14.50
2017-11-26T10:12:52.075Z,15.93
2017-11-26T10:15:19.106Z,22.97
2017-11-26T10:17:45.391Z,22.90
2017-11-26T10:20:11.688Z,20.70
2017-11-26T10:22:37.978Z,21.60
2017-11-26T10:25:04.334Z,17.03
2017-11-26T10:27:31.525Z,15.27
2017-11-26T10:29:57.831Z,26.53
2017-11-26T10:32:24.099Z,17.03
2017-11-26T10:34:50.336Z,25.17
2017-11-26T10:37:16.661Z,16.57
2017-11-26T10:39:42.879Z,16.90
2017-11-26T10:42:09.120Z,16.33
2017-11-26T10:44:35.408Z,13.80
2017-11-26T10:47:02.376Z,23.03
2017-11-26T10:49:29.495Z,11.23
2017-11-26T10:51:59.010Z,15.13
2017-11-26T10:54:26.929Z,14.50
2017-11-26T10:56:53.213Z,14.63
2017-11-26T10:59:20.505Z,16.20
2017-11-26T11:01:47.816Z,15.90
2017-11-26T11:04:14.858Z,17.13
2017-11-26T11:06:41.199Z,18.07
2017-11-26T11:09:08.282Z,15.20
2017-11-26T11:11:35.423Z,19.23
2017-11-26T11:14:01.726Z,16.27
2017-11-26T11:16:29.762Z,17.43
2017-11-26T11:18:56.026Z,21.43
2017-11-26T11:21:38.570Z,23.80
2017-11-26T11:24:05.056Z,26.97
2017-11-26T11:26:32.418Z,21.57
2017-11-26T11:28:58.733Z,19.97
2017-11-26T11:31:25.809Z,14.63
2017-11-26T11:33:53.017Z,13.50
2017-11-26T11:36:19.284Z,18.10
2017-11-26T11:38:46.292Z,18.10
2017-11-26T11:41:12.508Z,18.40
2017-11-26T11:43:39.760Z,16.53
2017-11-26T11:46:09.909Z,22.37
2017-11-26T11:48:37.040Z,13.57
2017-11-26T11:51:05.536Z,17.90
2017-11-26T11:53:31.952Z,16.77
2017-11-26T11:55:58.828Z,12.40
2017-11-26T11:58:26.245Z,15.87
2017-11-26T12:00:59.930Z,12.40
2017-11-26T12:06:08.185Z,14.13
2017-11-26T12:08:34.904Z,17.73
2017-11-26T12:11:02.215Z,21.07
2017-11-26T12:13:29.400Z,13.57
2017-11-26T12:15:56.457Z,16.87
2017-11-26T12:18:23.227Z,18.40
2017-11-26T12:20:49.574Z,20.73
2017-11-26T12:23:15.800Z,15.70
2017-11-26T12:25:42.433Z,14.10
2017-11-26T12:28:09.411Z,15.80
2017-11-26T12:30:35.828Z,13.27
2017-11-26T12:33:02.292Z,14.13
2017-11-26T12:35:28.580Z,23.50
2017-11-26T12:37:54.830Z,16.80
2017-11-26T12:40:21.822Z,17.07
2017-11-26T12:42:52.085Z,12.73
2017-11-26T12:45:25.255Z,11.30
2017-11-26T12:47:52.744Z,12.30
2017-11-26T12:50:18.963Z,13.03
2017-11-26T12:52:45.211Z,18.20
2017-11-26T12:55:11.512Z,19.00
2017-11-26T12:57:46.217Z,20.77
2017-11-26T13:00:12.505Z,25.97
2017-11-26T13:02:38.777Z,9.20
2017-11-26T13:05:06.303Z,17.50
2017-11-26T13:07:32.659Z,15.30
2017-11-26T13:09:59.711Z,9.47
2017-11-26T13:12:26.810Z,12.43
2017-11-26T13:14:53.187Z,14.50
2017-11-26T13:17:22.563Z,12.50
2017-11-26T13:19:49.583Z,12.70
2017-11-26T13:22:16.122Z,16.67
2017-11-26T13:24:42.449Z,10.77
2017-11-26T13:27:12.053Z,16.97
2017-11-26T13:29:38.962Z,12.50
2017-11-26T13:32:06.125Z,11.10
2017-11-26T13:34:32.424Z,15.50
2017-11-26T13:37:00.612Z,18.90
2017-11-26T13:39:30.483Z,16.57
2017-11-26T13:41:56.933Z,12.70
2017-11-26T13:44:23.423Z,15.00
2017-11-26T13:46:52.076Z,20.73
2017-11-26T13:49:19.730Z,16.40
2017-11-26T13:51:46.481Z,12.67
2017-11-26T13:54:13.486Z,16.23
2017-11-26T13:56:40.059Z,14.13
2017-11-26T13:59:06.897Z,13.50
2017-11-26T14:01:33.419Z,14.93
2017-11-26T14:04:00.532Z,19.53
2017-11-26T14:09:36.578Z,13.77
2017-11-26T14:12:03.216Z,16.87
2017-11-26T14:14:29.458Z,20.17
2017-11-26T14:17:01.431Z,13.90
2017-11-26T14:19:31.881Z,18.33
2017-11-26T14:21:58.737Z,21.90
2017-11-26T14:24:25.067Z,10.97
2017-11-26T14:26:55.895Z,13.57
2017-11-26T14:29:23.965Z,19.07
2017-11-26T14:31:51.743Z,13.37
2017-11-26T14:34:18.476Z,15.30
2017-11-26T14:36:48.591Z,13.67
2017-11-26T14:39:15.012Z,11.70
2017-11-26T14:41:42.639Z,14.00
2017-11-26T14:44:08.955Z,12.30
2017-11-26T14:46:37.060Z,11.87
2017-11-26T14:49:05.006Z,16.03
2017-11-26T14:51:31.633Z,12.47
2017-11-26T14:53:59.445Z,10.30
2017-11-26T14:56:25.855Z,13.40
2017-11-26T14:58:53.630Z,11.47
2017-11-26T15:01:20.539Z,14.40
2017-11-26T15:03:46.967Z,16.83
2017-11-26T15:06:13.415Z,21.00
2017-11-26T15:08:40.033Z,22.40
2017-11-26T15:11:06.384Z,12.30
2017-11-26T15:13:32.739Z,22.53
2017-11-26T15:15:59.374Z,27.30
2017-11-26T15:18:29.981Z,10.10
2017-11-26T15:20:56.779Z,10.00
2017-11-26T15:23:23.491Z,9.60
2017-11-26T15:25:50.002Z,16.60
2017-11-26T15:28:34.028Z,21.53
2017-11-26T15:37:04.899Z,18.53
2017-11-26T15:39:35.372Z,9.80
2017-11-26T15:42:02.459Z,10.50
2017-11-26T15:44:29.502Z,7.10
2017-11-26T15:46:56.595Z,8.30
2017-11-26T15:49:23.385Z,10.93
2017-11-26T15:51:50.677Z,13.93
2017-11-26T15:54:17.590Z,9.57
2017-11-26T15:56:45.392Z,11.33
2017-11-26T15:59:11.646Z,13.20
2017-11-26T16:01:38.100Z,10.67
2017-11-26T16:04:04.416Z,14.87
2017-11-26T16:06:33.589Z,16.53
2017-11-26T16:11:35.427Z,15.13
2017-11-26T16:14:01.685Z,21.03
2017-11-26T16:16:31.337Z,24.33
2017-11-26T16:19:11.549Z,20.53
2017-11-26T16:21:37.940Z,10.10
2017-11-26T16:24:05.366Z,23.00
2017-11-26T16:26:37.864Z,23.30
2017-11-26T16:29:05.489Z,18.80
2017-11-26T16:31:34.003Z,21.87
2017-11-26T16:34:00.460Z,15.50
2017-11-26T16:36:27.526Z,27.00
2017-11-26T16:39:00.765Z,33.00
2017-11-26T16:41:27.221Z,26.60
2017-11-26T16:43:54.215Z,23.47
2017-11-26T16:46:28.210Z,25.27
2017-11-26T16:48:57.424Z,19.90
2017-11-26T16:51:23.754Z,22.33
2017-11-26T16:53:50.023Z,12.10
2017-11-26T16:56:16.283Z,16.83
2017-11-26T16:58:42.600Z,16.67
2017-11-26T17:01:09.613Z,15.87
2017-11-26T17:03:40.445Z,18.17
2017-11-26T17:06:06.751Z,16.63
2017-11-26T17:08:33.043Z,18.77
2017-11-26T17:10:59.376Z,22.73
2017-11-26T17:13:26.406Z,21.07
2017-11-26T17:15:53.414Z,19.13
2017-11-26T17:18:21.294Z,26.17
2017-11-26T17:20:47.753Z,25.13
2017-11-26T17:23:14.840Z,29.57
2017-11-26T17:25:41.142Z,20.07
2017-11-26T17:28:07.417Z,29.47
2017-11-26T17:30:33.822Z,28.53
2017-11-26T17:33:00.181Z,16.50
2017-11-26T17:35:27.304Z,16.73
2017-11-26T17:37:55.024Z,24.87
2017-11-26T17:40:21.545Z,17.13
2017-11-26T17:42:48.137Z,21.83
2017-11-26T17:45:16.420Z,20.73
2017-11-26T17:47:44.179Z,22.10
2017-11-26T17:50:11.416Z,23.00
2017-11-26T17:52:38.218Z,21.67
2017-11-26T17:55:04.783Z,24.63
2017-11-26T17:57:32.514Z,21.10
2017-11-26T18:00:07.690Z,14.20
2017-11-26T18:02:34.149Z,23.83
2017-11-26T18:05:00.421Z,26.93
2017-11-26T18:07:47.840Z,19.00
2017-11-26T18:10:14.116Z,23.47
2017-11-26T18:12:40.605Z,19.83
2017-11-26T18:15:07.602Z,18.57
2017-11-26T18:17:37.348Z,20.27
2017-11-26T18:20:04.857Z,22.90
2017-11-26T18:22:31.118Z,22.27
2017-11-26T18:24:57.411Z,28.13
2017-11-26T18:27:26.368Z,23.63
2017-11-26T18:29:55.023Z,18.27
2017-11-26T18:32:22.593Z,34.33
2017-11-26T18:34:51.291Z,18.40
2017-11-26T18:37:20.069Z,12.73
2017-11-26T18:39:47.974Z,16.33
2017-11-26T18:42:21.839Z,20.83
2017-11-26T18:44:48.060Z,15.67
2017-11-26T18:47:16.816Z,15.13
2017-11-26T18:49:47.692Z,16.20
2017-11-26T18:52:13.905Z,48.60
2017-11-26T18:54:40.340Z,14.80
2017-11-26T18:57:07.808Z,18.17
2017-11-26T18:59:35.482Z,24.33
2017-11-26T19:02:02.071Z,21.93
2017-11-26T19:04:28.376Z,18.27
2017-11-26T19:06:59.263Z,22.23
2017-11-26T19:09:26.516Z,12.93
2017-11-26T19:11:52.952Z,22.87
2017-11-26T19:14:19.255Z,12.80
2017-11-26T19:16:48.371Z,16.17
2017-11-26T19:19:15.838Z,14.60
2017-11-26T19:21:42.469Z,17.90
2017-11-26T19:24:08.768Z,17.13
2017-11-26T19:26:37.131Z,17.53
2017-11-26T19:29:03.972Z,18.00
2017-11-26T19:31:30.509Z,17.63
2017-11-26T19:33:57.153Z,19.10
2017-11-26T19:39:31.165Z,18.83
2017-11-26T19:41:57.519Z,22.10
2017-11-26T19:44:24.057Z,18.70
2017-11-26T19:46:51.123Z,22.67
2017-11-26T19:49:17.604Z,24.33
2017-11-26T19:51:44.059Z,15.33
2017-11-26T19:54:10.504Z,27.70
2017-11-26T19:56:36.936Z,24.63
2017-11-26T19:59:04.180Z,18.47
2017-11-26T20:01:30.500Z,30.20
2017-11-26T20:03:57.531Z,15.27
2017-11-26T20:06:23.908Z,19.60
2017-11-26T20:08:50.404Z,13.50
2017-11-26T20:11:16.825Z,16.50
2017-11-26T20:13:43.095Z,17.77
2017-11-26T20:16:09.474Z,17.07
2017-11-26T20:18:35.940Z,23.47
2017-11-26T20:21:02.252Z,19.50
2017-11-26T20:23:29.324Z,19.07
2017-11-26T20:25:55.609Z,29.20
2017-11-26T20:28:23.752Z,15.60
2017-11-26T20:30:50.826Z,17.53
2017-11-26T20:33:17.206Z,22.00
2017-11-26T20:35:43.457Z,19.17
2017-11-26T20:38:12.422Z,29.03
2017-11-26T20:40:39.607Z,22.10
2017-11-26T20:43:05.882Z,19.57
2017-11-26T20:45:32.147Z,13.90
2017-11-26T20:48:01.082Z,13.77
2017-11-26T20:50:27.538Z,18.30
2017-11-26T20:52:53.814Z,17.30
2017-11-26T20:55:20.073Z,22.37
2017-11-26T20:57:47.523Z,17.73
2017-11-26T21:00:14.007Z,18.77
2017-11-26T21:02:41.244Z,18.87
2017-11-26T21:05:08.453Z,16.90
2017-11-26T21:07:38.834Z,16.53
2017-11-26T21:10:05.094Z,16.77
2017-11-26T21:12:31.501Z,24.00
2017-11-26T21:14:57.743Z,22.63
2017-11-26T21:17:24.144Z,23.07
2017-11-26T21:19:50.388Z,20.67
2017-11-26T21:22:16.729Z,17.40
2017-11-26T21:24:43.013Z,25.10
2017-11-26T21:27:12.417Z,15.33
2017-11-26T21:29:43.577Z,22.60
2017-11-26T21:32:09.950Z,23.10
2017-11-26T21:34:36.712Z,28.80
2017-11-26T21:37:04.664Z,20.07
2017-11-26T21:39:31.104Z,21.50
2017-11-26T21:41:57.458Z,20.20
2017-11-26T21:44:24.432Z,16.80
2017-11-26T21:46:52.230Z,28.30
2017-11-26T21:49:21.404Z,15.27
2017-11-26T21:51:47.636Z,15.37
2017-11-26T21:54:14.178Z,28.03
2017-11-26T21:56:40.431Z,21.27
2017-11-26T21:59:09.303Z,15.03
2017-11-26T22:01:36.379Z,41.03
2017-11-26T22:04:03.388Z,20.90
2017-11-26T22:06:31.924Z,18.37
2017-11-26T22:08:58.999Z,23.50
2017-11-26T22:11:25.612Z,17.10
2017-11-26T22:13:52.589Z,19.67
2017-11-26T22:16:19.627Z,17.30
2017-11-26T22:18:47.182Z,17.87
2017-11-26T22:21:13.495Z,14.20
2017-11-26T22:23:39.816Z,15.30
2017-11-26T22:26:06.812Z,18.67
2017-11-26T22:28:33.170Z,21.40
2017-11-26T22:30:59.461Z,18.20
2017-11-26T22:33:25.662Z,14.77
2017-11-26T22:35:51.987Z,11.70
2017-11-26T22:38:18.995Z,12.80
2017-11-26T22:40:45.249Z,17.23
2017-11-26T22:43:12.391Z,23.90
2017-11-26T22:45:39.505Z,23.13
2017-11-26T22:48:06.553Z,17.53
2017-11-26T22:50:32.784Z,14.60
2017-11-26T22:52:59.142Z,15.07
2017-11-26T22:55:25.461Z,12.93
2017-11-26T22:57:52.491Z,15.93
2017-11-26T23:00:18.861Z,17.33
2017-11-26T23:02:45.254Z,18.83
2017-11-26T23:05:12.192Z,20.07
2017-11-26T23:07:38.483Z,13.30
2017-11-26T23:10:04.754Z,14.57
2017-11-26T23:12:30.989Z,15.53
2017-11-26T23:14:57.312Z,18.20
2017-11-26T23:17:23.564Z,17.83
2017-11-26T23:19:49.904Z,17.67
2017-11-26T23:22:16.955Z,12.80
2017-11-26T23:24:43.254Z,18.03
2017-11-26T23:27:09.535Z,14.90
2017-11-26T23:29:35.766Z,14.87
2017-11-26T23:32:02.049Z,19.03
2017-11-26T23:34:28.298Z,16.70
2017-11-26T23:36:55.332Z,17.00
2017-11-26T23:39:21.677Z,17.97
2017-11-26T23:41:48.670Z,22.93
2017-11-26T23:44:15.331Z,17.83
2017-11-26T23:46:41.601Z,18.93
2017-11-26T23:49:08.603Z,17.80
2017-11-26T23:51:34.852Z,18.57
2017-11-26T23:54:01.132Z,14.63
2017-11-26T23:56:27.553Z,15.20
2017-11-26T23:58:53.858Z,23.50
